Time;durP1;ratioP1;P1;durP2;ratioP2;P2;SDS_P1;SDS_P2;PMS_P1;PMS_P2;Temp;Humidity;BMP_temperature;BMP_pressure;BME280_temperature;BME280_humidity;BME280_pressure;Samples;Min_cycle;Max_cycle;Signal;HPM_P1;HPM_P2
2023/05/01 00:00:41;;;;;;;3.07;1.23;;;15.60;69.40;;;;;;5059278;28;20193;-77
2023/05/01 00:03:06;;;;;;;3.80;1.97;;;15.60;69.40;;;;;;5066253;28;20200;-77
2023/05/01 00:05:32;;;;;;;3.30;1.30;;;15.60;69.50;;;;;;5057981;28;20193;-77
2023/05/01 00:07:58;;;;;;;2.37;1.20;;;15.60;69.70;;;;;;5048042;28;20182;-77
2023/05/01 00:10:23;;;;;;;2.67;1.47;;;15.60;69.80;;;;;;5038290;28;20693;-78
2023/05/01 00:12:49;;;;;;;3.00;1.23;;;15.60;69.90;;;;;;5043769;28;20173;-77
2023/05/01 00:15:15;;;;;;;2.83;1.30;;;15.70;70.20;;;;;;5051482;28;20215;-78
2023/05/01 00:17:41;;;;;;;2.60;1.17;;;15.60;70.50;;;;;;5051126;28;20584;-78
2023/05/01 00:20:07;;;;;;;3.13;1.63;;;15.60;70.40;;;;;;5051485;28;21005;-77
2023/05/01 00:22:33;;;;;;;2.57;1.40;;;15.60;70.50;;;;;;5034139;28;20174;-77
2023/05/01 00:24:59;;;;;;;2.10;1.43;;;15.60;70.40;;;;;;5030926;28;20654;-77
2023/05/01 00:27:26;;;;;;;2.60;1.37;;;15.70;70.60;;;;;;5031895;28;20261;-77
2023/05/01 00:29:51;;;;;;;2.10;1.10;;;15.70;70.60;;;;;;5031909;28;20687;-77
2023/05/01 00:32:17;;;;;;;2.67;1.47;;;15.70;70.60;;;;;;5014302;28;20683;-77
2023/05/01 00:34:47;;;;;;;2.33;1.13;;;15.70;70.70;;;;;;5014177;28;20248;-77
2023/05/01 00:37:13;;;;;;;3.70;1.50;;;15.70;70.70;;;;;;5013581;28;20587;-78
2023/05/01 00:39:38;;;;;;;2.40;1.13;;;15.70;70.90;;;;;;5029853;28;20782;-76
2023/05/01 00:42:04;;;;;;;2.50;1.40;;;15.80;70.90;;;;;;5031452;28;21171;-77
2023/05/01 00:44:30;;;;;;;2.87;1.47;;;15.70;70.90;;;;;;5013155;28;20700;-77
2023/05/01 00:46:59;;;;;;;1.93;1.20;;;15.80;71.00;;;;;;5030367;28;20513;-78
2023/05/01 00:49:25;;;;;;;3.10;1.40;;;15.70;71.30;;;;;;5030594;28;20580;-78
2023/05/01 00:51:53;;;;;;;2.10;1.10;;;15.70;71.10;;;;;;5013891;28;20612;-76
2023/05/01 00:54:19;;;;;;;1.80;1.30;;;15.80;71.30;;;;;;5030361;28;20974;-76
2023/05/01 00:56:49;;;;;;;2.40;1.30;;;15.80;71.50;;;;;;5029326;28;20576;-77
2023/05/01 00:59:15;;;;;;;3.27;1.40;;;15.70;71.40;;;;;;5030009;28;20639;-77
2023/05/01 01:01:41;;;;;;;2.87;1.43;;;15.70;71.60;;;;;;5029313;28;21132;-76
2023/05/01 01:04:07;;;;;;;3.10;1.10;;;15.70;71.60;;;;;;5030072;28;20695;-77
2023/05/01 01:06:40;;;;;;;3.33;1.60;;;15.70;71.60;;;;;;5030573;28;20576;-77
2023/05/01 01:09:31;;;;;;;2.20;1.27;;;15.70;72.00;;;;;;5030002;28;20177;-78
2023/05/01 01:12:07;;;;;;;2.77;1.30;;;15.70;72.00;;;;;;5028762;28;20585;-78
2023/05/01 01:14:44;;;;;;;2.13;1.00;;;15.70;72.10;;;;;;5040552;28;20639;-77
2023/05/01 01:17:15;;;;;;;3.60;1.50;;;15.70;72.00;;;;;;5013159;28;20730;-77
2023/05/01 01:20:13;;;;;;;4.17;1.40;;;15.70;72.10;;;;;;5029769;28;20690;-77
2023/05/01 01:22:42;;;;;;;2.73;1.30;;;15.60;72.40;;;;;;5054461;23;20782;-73
2023/05/01 01:25:40;;;;;;;3.50;1.80;;;15.70;72.40;;;;;;5024720;28;20579;-75
2023/05/01 01:28:34;;;;;;;1.70;1.07;;;15.70;72.40;;;;;;5049182;28;20572;-75
2023/05/01 01:31:27;;;;;;;2.80;1.70;;;15.70;72.40;;;;;;5036223;28;20579;-75
2023/05/01 01:34:03;;;;;;;2.73;1.33;;;15.60;72.30;;;;;;5010934;28;20916;-75
2023/05/01 01:36:38;;;;;;;2.63;1.50;;;15.60;72.30;;;;;;5009197;28;20573;-73
2023/05/01 01:39:13;;;;;;;2.83;1.52;;;15.60;72.40;;;;;;5009447;28;20694;-75
2023/05/01 01:41:41;;;;;;;2.33;1.50;;;15.60;72.50;;;;;;5009436;28;20618;-73
2023/05/01 01:44:24;;;;;;;2.10;1.30;;;15.60;72.80;;;;;;5001459;28;20628;-73
2023/05/01 01:46:53;;;;;;;2.00;1.20;;;15.60;72.50;;;;;;5026172;28;20651;-73
2023/05/01 01:49:26;;;;;;;2.80;1.50;;;15.60;72.50;;;;;;4995111;28;20625;-73
2023/05/01 01:51:55;;;;;;;4.20;1.60;;;15.60;72.60;;;;;;5020123;28;20636;-73
2023/05/01 01:54:42;;;;;;;4.67;1.73;;;15.60;72.70;;;;;;5021068;28;20581;-74
2023/05/01 01:57:11;;;;;;;3.30;1.67;;;15.60;72.80;;;;;;5028646;28;20580;-73
2023/05/01 01:59:39;;;;;;;4.37;1.70;;;15.60;72.90;;;;;;5029447;28;21318;-73
2023/05/01 02:02:07;;;;;;;2.20;1.10;;;15.60;73.00;;;;;;5032008;28;20631;-73
2023/05/01 02:04:35;;;;;;;2.67;1.47;;;15.60;73.20;;;;;;5033075;28;20584;-73
2023/05/01 02:07:01;;;;;;;1.97;1.07;;;15.60;73.20;;;;;;5032065;28;20576;-72
2023/05/01 02:09:28;;;;;;;3.13;1.33;;;15.60;73.20;;;;;;5034284;28;20952;-73
2023/05/01 02:11:54;;;;;;;4.63;2.07;;;15.60;73.50;;;;;;5033524;28;20610;-73
2023/05/01 02:14:25;;;;;;;2.10;1.40;;;15.50;73.50;;;;;;5024439;28;20596;-73
2023/05/01 02:16:51;;;;;;;2.40;1.57;;;15.60;73.70;;;;;;5023451;28;21178;-74
2023/05/01 02:19:20;;;;;;;2.10;1.17;;;15.50;73.60;;;;;;5022978;28;20667;-73
2023/05/01 02:21:47;;;;;;;3.00;1.60;;;15.50;73.70;;;;;;5013992;28;21180;-74
2023/05/01 02:24:14;;;;;;;3.00;1.30;;;15.50;74.20;;;;;;5030034;28;20588;-74
2023/05/01 02:26:48;;;;;;;1.80;1.10;;;15.50;74.00;;;;;;5032525;28;20576;-73
2023/05/01 02:29:14;;;;;;;3.90;2.07;;;15.50;74.10;;;;;;5032347;28;21173;-74
2023/05/01 02:31:40;;;;;;;1.80;1.50;;;15.50;74.00;;;;;;5016173;28;20588;-73
2023/05/01 02:34:05;;;;;;;2.43;1.30;;;15.60;75.10;;;;;;5032289;28;20189;-74
2023/05/01 02:36:32;;;;;;;3.17;1.73;;;15.50;74.20;;;;;;5031811;28;20682;-74
2023/05/01 02:38:59;;;;;;;3.20;1.40;;;15.50;74.40;;;;;;5032072;28;20205;-73
2023/05/01 02:41:29;;;;;;;2.23;1.27;;;15.50;74.30;;;;;;5032394;28;20700;-74
2023/05/01 02:44:00;;;;;;;2.27;1.20;;;15.50;74.50;;;;;;5032346;28;20630;-74
2023/05/01 02:46:28;;;;;;;2.60;1.30;;;15.50;74.50;;;;;;5031672;28;20587;-74
2023/05/01 02:48:55;;;;;;;3.47;1.83;;;15.50;74.60;;;;;;5032550;28;20174;-74
2023/05/01 02:51:23;;;;;;;2.30;1.10;;;15.50;74.70;;;;;;5031747;28;20620;-74
2023/05/01 02:53:49;;;;;;;2.07;1.33;;;15.40;74.60;;;;;;5032227;28;20612;-73
2023/05/01 02:56:19;;;;;;;2.10;1.20;;;15.50;74.90;;;;;;5031136;28;20580;-74
2023/05/01 02:58:47;;;;;;;2.67;1.30;;;15.50;74.90;;;;;;5024434;28;21121;-74
2023/05/01 03:01:13;;;;;;;4.67;1.70;;;15.40;75.00;;;;;;5023227;28;20596;-74
2023/05/01 03:03:39;;;;;;;3.17;1.40;;;15.40;75.20;;;;;;5025218;28;20639;-73
2023/05/01 03:06:04;;;;;;;2.97;1.50;;;15.40;75.30;;;;;;5022313;28;20261;-74
2023/05/01 03:08:30;;;;;;;2.73;1.37;;;15.40;75.20;;;;;;5019553;28;20779;-74
2023/05/01 03:10:56;;;;;;;3.50;1.70;;;15.40;75.20;;;;;;5021475;28;20177;-74
2023/05/01 03:13:21;;;;;;;2.70;1.40;;;15.40;75.20;;;;;;5019394;28;20198;-74
2023/05/01 03:15:47;;;;;;;2.10;1.30;;;15.30;75.30;;;;;;4995501;28;20309;-74
2023/05/01 03:18:13;;;;;;;4.97;1.53;;;15.30;75.30;;;;;;5019454;28;20178;-74
2023/05/01 03:20:38;;;;;;;3.10;1.67;;;15.30;75.50;;;;;;5023057;28;20205;-73
2023/05/01 03:23:05;;;;;;;2.70;1.67;;;15.30;75.60;;;;;;5006105;28;20204;-73
2023/05/01 03:25:32;;;;;;;2.17;1.40;;;15.30;75.70;;;;;;5011925;28;20186;-74
2023/05/01 03:27:58;;;;;;;2.60;1.23;;;15.20;75.80;;;;;;5011391;28;20736;-74
2023/05/01 03:30:24;;;;;;;4.23;1.20;;;15.20;75.80;;;;;;5011697;28;20711;-74
2023/05/01 03:32:51;;;;;;;2.40;1.40;;;15.10;75.80;;;;;;5028123;28;20289;-74
2023/05/01 03:35:22;;;;;;;3.10;1.40;;;15.10;76.00;;;;;;5010901;28;20668;-74
2023/05/01 03:37:48;;;;;;;2.13;1.23;;;15.10;76.10;;;;;;4995089;28;20890;-74
2023/05/01 03:40:31;;;;;;;2.93;1.80;;;15.00;76.30;;;;;;5011024;28;20645;-74
2023/05/01 03:43:15;;;;;;;2.67;1.90;;;15.00;76.40;;;;;;5011666;28;20612;-74
2023/05/01 03:45:41;;;;;;;2.67;2.23;;;15.00;76.50;;;;;;5010827;28;20589;-74
2023/05/01 03:48:06;;;;;;;2.30;1.60;;;14.90;77.10;;;;;;5011445;28;21128;-74
2023/05/01 03:50:32;;;;;;;4.03;1.47;;;14.90;77.00;;;;;;5010849;28;20272;-74
2023/05/01 03:52:58;;;;;;;1.93;1.30;;;14.90;77.20;;;;;;5011210;28;20264;-74
2023/05/01 03:55:23;;;;;;;4.10;1.87;;;14.80;77.20;;;;;;5010618;28;20178;-74
2023/05/01 03:57:51;;;;;;;3.40;1.93;;;14.80;77.50;;;;;;5011459;28;20179;-74
2023/05/01 04:00:17;;;;;;;3.80;2.33;;;14.80;77.80;;;;;;5027663;28;20640;-74
2023/05/01 04:02:44;;;;;;;3.10;1.90;;;14.80;78.00;;;;;;5010604;28;20620;-74
2023/05/01 04:05:14;;;;;;;2.73;1.60;;;14.70;78.30;;;;;;5010925;28;20590;-74
2023/05/01 04:07:45;;;;;;;4.63;1.83;;;14.70;78.30;;;;;;5018046;28;20606;-74
2023/05/01 04:10:11;;;;;;;2.43;1.73;;;14.70;78.60;;;;;;5028141;28;20173;-74
2023/05/01 04:12:42;;;;;;;3.37;2.03;;;14.60;78.60;;;;;;5030250;28;20198;-74
2023/05/01 04:15:08;;;;;;;3.30;1.87;;;14.60;78.90;;;;;;5022224;28;20624;-74
2023/05/01 04:17:37;;;;;;;2.50;2.30;;;14.50;79.30;;;;;;5029889;28;20576;-74
2023/05/01 04:20:07;;;;;;;3.00;1.97;;;14.50;79.50;;;;;;5030364;28;20648;-74
2023/05/01 04:22:33;;;;;;;2.63;1.75;;;14.50;79.70;;;;;;4983271;28;20634;-74
2023/05/01 04:24:58;;;;;;;7.27;2.43;;;14.50;80.10;;;;;;5007483;28;20838;-74
2023/05/01 04:27:24;;;;;;;2.00;1.50;;;14.50;80.30;;;;;;5007188;28;20261;-74
2023/05/01 04:29:50;;;;;;;3.90;1.60;;;14.40;80.30;;;;;;5021391;28;20173;-73
2023/05/01 04:32:16;;;;;;;2.40;1.80;;;14.40;80.50;;;;;;5021758;28;20194;-73
2023/05/01 04:34:45;;;;;;;2.30;1.70;;;14.40;81.10;;;;;;5022412;28;20189;-73
2023/05/01 04:37:11;;;;;;;2.97;1.60;;;14.40;81.60;;;;;;5020024;28;20198;-73
2023/05/01 04:39:37;;;;;;;3.73;1.93;;;14.40;81.50;;;;;;5022658;28;20259;-73
2023/05/01 04:42:03;;;;;;;3.35;2.75;;;14.30;81.60;;;;;;5029957;28;21194;-73
2023/05/01 04:44:32;;;;;;;2.72;1.90;;;14.30;82.00;;;;;;5012426;28;20177;-73
2023/05/01 04:47:01;;;;;;;4.10;1.90;;;14.30;82.30;;;;;;5018166;28;20193;-73
2023/05/01 04:49:27;;;;;;;3.40;2.17;;;14.40;83.00;;;;;;5029752;28;20591;-73
2023/05/01 04:51:53;;;;;;;6.67;1.90;;;14.30;82.90;;;;;;5029691;28;20604;-76
2023/05/01 04:54:21;;;;;;;2.20;1.65;;;14.40;83.50;;;;;;5016492;28;20592;-75
2023/05/01 04:56:47;;;;;;;3.93;1.83;;;14.40;83.60;;;;;;5009637;28;20321;-76
2023/05/01 04:59:13;;;;;;;3.70;2.20;;;14.40;83.80;;;;;;5010153;28;20728;-76
2023/05/01 05:01:38;;;;;;;5.40;2.07;;;14.40;83.90;;;;;;5009569;28;20163;-75
2023/05/01 05:04:05;;;;;;;1.90;1.40;;;14.50;84.30;;;;;;5010252;28;20972;-75
2023/05/01 05:06:30;;;;;;;2.33;1.37;;;14.50;84.50;;;;;;5009435;28;20639;-75
2023/05/01 05:08:57;;;;;;;5.72;1.73;;;14.50;84.60;;;;;;4993716;28;21156;-75
2023/05/01 05:11:23;;;;;;;5.13;2.40;;;14.60;84.70;;;;;;5017773;28;20199;-75
2023/05/01 05:14:02;;;;;;;3.20;2.30;;;14.60;84.90;;;;;;5026079;28;21146;-75
2023/05/01 05:16:28;;;;;;;2.60;1.40;;;14.60;85.10;;;;;;5029218;28;20584;-75
2023/05/01 05:18:57;;;;;;;2.87;1.63;;;14.70;85.30;;;;;;5029340;28;20607;-75
2023/05/01 05:21:24;;;;;;;3.37;1.60;;;14.80;85.60;;;;;;5021524;28;20175;-75
2023/05/01 05:23:53;;;;;;;5.23;1.50;;;14.80;85.50;;;;;;4993962;28;20586;-75
2023/05/01 05:26:19;;;;;;;2.47;1.70;;;14.80;85.40;;;;;;5009741;28;20577;-76
2023/05/01 05:28:46;;;;;;;2.90;1.30;;;14.90;85.60;;;;;;5009283;28;20175;-75
2023/05/01 05:31:12;;;;;;;3.30;2.10;;;14.90;85.80;;;;;;5009565;28;20586;-76
2023/05/01 05:33:38;;;;;;;3.83;1.93;;;14.90;86.00;;;;;;5009460;28;20642;-76
2023/05/01 05:36:05;;;;;;;5.83;2.03;;;15.00;86.00;;;;;;4994679;28;20193;-76
2023/05/01 05:38:37;;;;;;;2.42;1.20;;;15.00;86.00;;;;;;5013263;28;20616;-76
2023/05/01 05:41:05;;;;;;;4.83;2.17;;;15.00;86.00;;;;;;5004579;28;20170;-76
2023/05/01 05:43:31;;;;;;;3.23;1.50;;;15.10;86.10;;;;;;5025072;28;21357;-75
2023/05/01 05:45:58;;;;;;;3.93;1.90;;;15.10;86.10;;;;;;5024934;28;20176;-75
2023/05/01 05:48:25;;;;;;;2.77;1.00;;;15.20;86.20;;;;;;4999345;28;20170;-76
2023/05/01 05:50:51;;;;;;;4.80;1.80;;;15.30;86.40;;;;;;5002123;28;21013;-76
2023/05/01 05:53:18;;;;;;;2.33;1.30;;;15.40;86.50;;;;;;5003434;28;20630;-76
2023/05/01 05:55:46;;;;;;;3.80;1.80;;;15.50;86.70;;;;;;4994884;28;20605;-75
2023/05/01 05:58:18;;;;;;;3.00;1.43;;;15.60;86.60;;;;;;5013348;28;20609;-76
2023/05/01 06:00:47;;;;;;;2.13;1.23;;;15.60;86.20;;;;;;5004352;28;20639;-75
2023/05/01 06:03:14;;;;;;;2.23;1.50;;;15.60;86.20;;;;;;5013198;28;20620;-75
2023/05/01 06:05:42;;;;;;;2.07;1.20;;;15.80;86.40;;;;;;4996146;28;20668;-75
2023/05/01 06:08:11;;;;;;;1.93;1.33;;;15.90;86.40;;;;;;5010473;28;20591;-74
2023/05/01 06:10:40;;;;;;;3.80;1.40;;;15.90;86.10;;;;;;5033245;28;20576;-74
2023/05/01 06:13:07;;;;;;;3.63;1.40;;;16.00;86.30;;;;;;5025811;28;20613;-75
2023/05/01 06:15:34;;;;;;;3.20;1.90;;;16.10;86.30;;;;;;5012274;28;20569;-76
2023/05/01 06:18:00;;;;;;;2.87;1.60;;;16.20;86.40;;;;;;5012420;28;20596;-75
2023/05/01 06:20:26;;;;;;;1.80;1.30;;;16.20;85.50;;;;;;5029146;28;21208;-76
2023/05/01 06:22:52;;;;;;;2.50;1.53;;;16.20;85.40;;;;;;5018430;28;20647;-75
2023/05/01 06:25:26;;;;;;;2.50;1.80;;;16.30;86.00;;;;;;5024127;28;20265;-75
2023/05/01 06:27:51;;;;;;;3.47;1.27;;;16.40;85.80;;;;;;5023585;28;20688;-75
2023/05/01 06:30:20;;;;;;;2.50;1.27;;;16.50;86.20;;;;;;5020733;28;20573;-75
2023/05/01 06:32:46;;;;;;;2.83;1.77;;;16.70;86.20;;;;;;5026480;28;20710;-76
2023/05/01 06:35:13;;;;;;;3.10;1.60;;;16.70;85.60;;;;;;5031816;28;20598;-76
2023/05/01 06:37:39;;;;;;;1.93;1.07;;;16.80;85.10;;;;;;5032392;28;20592;-77
2023/05/01 06:40:08;;;;;;;4.40;1.97;;;16.80;84.80;;;;;;5031949;28;20704;-76
2023/05/01 06:42:35;;;;;;;2.53;1.67;;;16.80;84.60;;;;;;5032083;28;20663;-76
2023/05/01 06:45:02;;;;;;;3.03;1.80;;;16.80;83.80;;;;;;5032033;28;20588;-76
2023/05/01 06:47:28;;;;;;;3.80;1.80;;;16.70;83.70;;;;;;5030909;28;20580;-76
2023/05/01 06:49:53;;;;;;;2.80;1.40;;;16.70;83.60;;;;;;5032123;28;20576;-77
2023/05/01 06:52:19;;;;;;;4.03;1.40;;;16.60;83.60;;;;;;5029667;28;20236;-76
2023/05/01 06:54:45;;;;;;;2.93;1.33;;;16.60;84.00;;;;;;5011413;28;20353;-76
2023/05/01 06:57:11;;;;;;;2.37;1.40;;;16.70;84.30;;;;;;5011535;28;20636;-76
2023/05/01 06:59:37;;;;;;;1.80;1.10;;;16.70;84.00;;;;;;5012387;28;20241;-75
2023/05/01 07:02:02;;;;;;;3.97;1.90;;;16.70;84.10;;;;;;5012941;28;21688;-75
2023/05/01 07:04:29;;;;;;;3.10;1.80;;;16.80;84.30;;;;;;5019852;28;20171;-76
2023/05/01 07:06:55;;;;;;;2.97;1.70;;;16.80;84.20;;;;;;5012713;28;20181;-76
2023/05/01 07:09:21;;;;;;;3.07;1.53;;;16.80;84.20;;;;;;5010898;28;20585;-75
2023/05/01 07:11:46;;;;;;;2.93;1.63;;;16.80;84.00;;;;;;5012864;28;20194;-75
2023/05/01 07:14:12;;;;;;;3.30;1.30;;;16.90;84.00;;;;;;5012203;28;20178;-75
2023/05/01 07:16:38;;;;;;;3.17;1.60;;;16.90;84.00;;;;;;5012466;28;20216;-75
2023/05/01 07:19:04;;;;;;;6.63;1.43;;;16.90;83.20;;;;;;5011751;28;20210;-75
2023/05/01 07:21:31;;;;;;;2.73;1.27;;;16.90;83.80;;;;;;5011311;28;21015;-75
2023/05/01 07:23:56;;;;;;;4.10;2.07;;;17.10;84.20;;;;;;5012788;28;20221;-75
2023/05/01 07:26:24;;;;;;;4.13;1.50;;;17.20;84.20;;;;;;5012987;28;21179;-75
2023/05/01 07:28:50;;;;;;;3.33;1.40;;;17.20;83.30;;;;;;5011232;28;20273;-76
2023/05/01 07:31:16;;;;;;;3.97;1.20;;;17.40;83.80;;;;;;5013018;28;21168;-75
2023/05/01 07:33:41;;;;;;;5.03;1.90;;;17.50;83.20;;;;;;5011564;28;20194;-75
2023/05/01 07:36:08;;;;;;;2.73;1.53;;;17.60;83.10;;;;;;5010609;28;20221;-76
2023/05/01 07:38:33;;;;;;;2.53;1.20;;;17.70;83.10;;;;;;5012841;28;20179;-75
2023/05/01 07:40:59;;;;;;;2.50;1.20;;;17.80;83.00;;;;;;5011096;28;20698;-76
2023/05/01 07:43:25;;;;;;;3.03;1.50;;;18.00;83.00;;;;;;5012537;28;20281;-76
2023/05/01 07:45:59;;;;;;;2.20;1.30;;;18.10;82.80;;;;;;5010714;28;20182;-76
2023/05/01 07:48:26;;;;;;;3.03;1.57;;;18.30;82.10;;;;;;5011683;28;20232;-77
2023/05/01 07:50:53;;;;;;;2.37;1.10;;;18.40;81.00;;;;;;5010225;28;20593;-77
2023/05/01 07:53:19;;;;;;;2.23;1.30;;;18.50;82.10;;;;;;5036826;23;20842;-77
2023/05/01 07:55:45;;;;;;;2.40;1.57;;;18.70;81.70;;;;;;5019461;28;20619;-77
2023/05/01 07:58:10;;;;;;;2.57;1.40;;;18.90;81.10;;;;;;5007042;28;20635;-78
2023/05/01 08:00:36;;;;;;;2.33;1.30;;;18.90;79.50;;;;;;5023840;28;20252;-76
2023/05/01 08:03:02;;;;;;;3.00;1.40;;;19.10;81.20;;;;;;5014798;28;20202;-77
2023/05/01 08:05:27;;;;;;;1.87;1.10;;;19.30;80.70;;;;;;5012407;28;20182;-78
2023/05/01 08:07:53;;;;;;;2.07;1.10;;;19.40;80.50;;;;;;5012833;28;20197;-78
2023/05/01 08:10:19;;;;;;;3.23;1.10;;;19.50;80.50;;;;;;4997377;28;20192;-78
2023/05/01 08:12:45;;;;;;;3.30;1.37;;;19.60;79.80;;;;;;5006524;28;20202;-78
2023/05/01 08:15:10;;;;;;;6.47;1.30;;;19.70;78.20;;;;;;5018287;28;20627;-78
2023/05/01 08:17:36;;;;;;;2.10;1.33;;;19.70;78.90;;;;;;5018633;28;20182;-79
2023/05/01 08:20:03;;;;;;;2.33;1.30;;;19.60;75.60;;;;;;5001848;28;20207;-79
2023/05/01 08:22:28;;;;;;;2.83;1.40;;;19.40;75.10;;;;;;5002216;28;20224;-80
2023/05/01 08:24:54;;;;;;;4.00;1.50;;;19.40;75.40;;;;;;5008627;28;20603;-79
2023/05/01 08:27:20;;;;;;;3.60;1.40;;;19.30;75.60;;;;;;5022585;28;20225;-77
2023/05/01 08:29:46;;;;;;;2.50;1.20;;;19.40;76.00;;;;;;5023873;28;21058;-80
2023/05/01 08:32:12;;;;;;;2.60;1.40;;;19.40;77.10;;;;;;5018996;28;20712;-81
2023/05/01 08:34:38;;;;;;;2.33;1.30;;;19.70;77.10;;;;;;5013351;28;20194;-80
2023/05/01 08:37:04;;;;;;;3.27;1.43;;;19.90;77.80;;;;;;5013483;28;20600;-81
2023/05/01 08:39:30;;;;;;;1.90;1.10;;;20.20;77.20;;;;;;4988942;28;20202;-79
2023/05/01 08:41:57;;;;;;;3.87;1.80;;;20.30;76.40;;;;;;5014416;28;20181;-81
2023/05/01 08:44:24;;;;;;;3.10;1.47;;;20.50;75.30;;;;;;5015584;28;20205;-77
2023/05/01 08:46:59;;;;;;;2.00;1.20;;;20.60;74.80;;;;;;4995115;28;20630;-75
2023/05/01 08:49:27;;;;;;;2.20;1.30;;;20.70;74.60;;;;;;4999322;28;20589;-78
2023/05/01 08:51:55;;;;;;;2.07;1.00;;;20.80;74.80;;;;;;5009287;28;20744;-77
2023/05/01 08:54:23;;;;;;;5.40;1.20;;;20.90;74.30;;;;;;5012821;28;20638;-78
2023/05/01 08:56:52;;;;;;;2.80;1.33;;;21.00;74.00;;;;;;5023666;28;20588;-77
2023/05/01 08:59:20;;;;;;;2.33;1.20;;;21.10;73.50;;;;;;5017058;28;20625;-77
2023/05/01 09:01:47;;;;;;;3.30;1.07;;;21.10;73.50;;;;;;5018577;28;20600;-77
2023/05/01 09:04:14;;;;;;;3.53;1.27;;;21.20;74.10;;;;;;5020384;28;20613;-79
2023/05/01 09:06:43;;;;;;;2.43;1.20;;;21.30;73.30;;;;;;5022105;28;20582;-78
2023/05/01 09:09:09;;;;;;;2.57;0.90;;;21.30;73.10;;;;;;5025331;28;20589;-77
2023/05/01 09:11:35;;;;;;;4.13;1.10;;;21.40;72.20;;;;;;5019485;28;20572;-77
2023/05/01 09:14:04;;;;;;;1.90;1.10;;;21.40;71.80;;;;;;5024728;28;20609;-78
2023/05/01 09:16:30;;;;;;;4.10;1.50;;;21.40;72.00;;;;;;5026882;28;20596;-78
2023/05/01 09:18:57;;;;;;;1.73;1.30;;;21.50;70.10;;;;;;5012328;28;20589;-77
2023/05/01 09:21:24;;;;;;;2.83;1.10;;;21.40;70.70;;;;;;5026084;28;20585;-78
2023/05/01 09:23:50;;;;;;;2.03;0.97;;;21.50;71.70;;;;;;5027148;28;20589;-77
2023/05/01 09:26:16;;;;;;;1.70;1.10;;;21.80;72.50;;;;;;5021870;28;20577;-78
2023/05/01 09:28:44;;;;;;;4.80;1.23;;;22.00;72.50;;;;;;5029738;28;20955;-78
2023/05/01 09:31:26;;;;;;;2.93;1.20;;;22.10;72.50;;;;;;5038057;28;21135;-78
2023/05/01 09:34:00;;;;;;;2.73;0.97;;;22.30;71.70;;;;;;5018759;28;21438;-76
2023/05/01 09:36:31;;;;;;;1.77;1.03;;;22.60;72.40;;;;;;5018296;28;20599;-75
2023/05/01 09:38:58;;;;;;;2.17;1.10;;;22.80;72.40;;;;;;5025887;28;20582;-76
2023/05/01 09:41:25;;;;;;;3.05;1.80;;;23.20;73.50;;;;;;5023163;28;20692;-76
2023/05/01 09:44:21;;;;;;;5.77;1.53;;;23.80;70.70;;;;;;5026522;28;20220;-78
2023/05/01 09:46:48;;;;;;;3.00;1.47;;;24.20;72.50;;;;;;5022606;28;20612;-77
2023/05/01 09:49:15;;;;;;;2.00;1.10;;;24.70;72.80;;;;;;5030597;28;20608;-77
2023/05/01 09:51:41;;;;;;;3.50;1.80;;;25.10;72.10;;;;;;5027619;28;20699;-77
2023/05/01 09:54:18;;;;;;;3.17;1.10;;;25.40;71.00;;;;;;5022440;28;20636;-76
2023/05/01 09:56:48;;;;;;;3.30;1.20;;;25.60;68.80;;;;;;5020269;28;20592;-76
2023/05/01 09:59:16;;;;;;;2.27;1.00;;;25.90;69.20;;;;;;5020927;28;20628;-78
2023/05/01 10:01:44;;;;;;;2.10;1.00;;;26.20;65.70;;;;;;5020351;28;20600;-78
2023/05/01 10:04:11;;;;;;;2.40;1.20;;;26.20;65.40;;;;;;5005279;28;20795;-77
2023/05/01 10:06:38;;;;;;;3.23;1.13;;;26.20;59.80;;;;;;5019029;28;20585;-78
2023/05/01 10:09:06;;;;;;;1.90;1.03;;;26.40;62.80;;;;;;5018466;28;21183;-78
2023/05/01 10:11:53;;;;;;;6.20;1.10;;;26.70;63.50;;;;;;5017841;28;20592;-75
2023/05/01 10:14:19;;;;;;;3.67;1.20;;;27.20;63.80;;;;;;5020159;28;20623;-75
2023/05/01 10:16:45;;;;;;;3.17;1.10;;;27.80;64.90;;;;;;5023373;28;20612;-75
2023/05/01 10:19:12;;;;;;;2.20;1.00;;;28.40;64.20;;;;;;5024219;28;20625;-76
2023/05/01 10:21:37;;;;;;;4.07;0.93;;;28.80;63.00;;;;;;5023768;28;20652;-76
2023/05/01 10:24:04;;;;;;;2.17;1.00;;;29.30;62.10;;;;;;5022179;28;20613;-75
2023/05/01 10:26:34;;;;;;;2.90;1.20;;;30.00;62.70;;;;;;5020367;28;20194;-75
2023/05/01 10:29:00;;;;;;;2.23;1.10;;;30.60;61.50;;;;;;5021052;28;20638;-75
2023/05/01 10:31:28;;;;;;;3.10;0.90;;;31.30;59.80;;;;;;5020309;28;20602;-75
2023/05/01 10:33:55;;;;;;;2.83;1.30;;;31.70;58.20;;;;;;5021296;28;20623;-75
2023/05/01 10:36:27;;;;;;;2.00;1.00;;;32.20;57.30;;;;;;5021565;28;20623;-75
2023/05/01 10:38:53;;;;;;;2.37;0.90;;;32.70;55.70;;;;;;5023189;28;20637;-75
2023/05/01 10:41:57;;;;;;;1.50;0.83;;;32.90;54.10;;;;;;5013873;28;20591;-76
2023/05/01 10:44:26;;;;;;;1.57;0.90;;;33.10;53.50;;;;;;5032912;28;20619;-76
2023/05/01 10:46:52;;;;;;;1.60;1.00;;;33.20;53.40;;;;;;5028955;28;20604;-76
2023/05/01 10:49:18;;;;;;;1.97;1.17;;;33.30;52.40;;;;;;5012819;28;20600;-76
2023/05/01 10:51:57;;;;;;;1.93;1.00;;;33.20;50.10;;;;;;5043551;28;20613;-78
2023/05/01 10:54:30;;;;;;;1.80;0.90;;;33.00;50.00;;;;;;5031952;28;20212;-78
2023/05/01 10:57:01;;;;;;;3.00;1.13;;;33.00;50.30;;;;;;5031775;28;20596;-76
2023/05/01 10:59:46;;;;;;;1.97;0.73;;;33.10;50.30;;;;;;5033648;28;20638;-74
2023/05/01 11:02:21;;;;;;;2.10;0.80;;;33.00;49.10;;;;;;5031593;28;20578;-75
2023/05/01 11:04:49;;;;;;;1.80;0.90;;;32.60;47.90;;;;;;5032215;28;20605;-74
2023/05/01 11:07:17;;;;;;;1.50;0.77;;;32.20;47.20;;;;;;5031904;28;20577;-75
2023/05/01 11:09:44;;;;;;;1.80;0.70;;;31.80;47.10;;;;;;5033929;28;20571;-75
2023/05/01 11:12:15;;;;;;;2.10;1.00;;;31.40;46.20;;;;;;5032267;28;20608;-77
2023/05/01 11:14:54;;;;;;;1.90;0.97;;;31.10;46.50;;;;;;5032104;28;20600;-74
2023/05/01 11:17:39;;;;;;;1.73;0.80;;;30.80;46.10;;;;;;5032585;28;20607;-75
2023/05/01 11:20:06;;;;;;;1.60;0.80;;;30.50;46.90;;;;;;5016825;28;20678;-74
2023/05/01 11:22:36;;;;;;;5.00;1.50;;;30.40;47.30;;;;;;5012717;28;20640;-74
2023/05/01 11:25:03;;;;;;;1.73;0.80;;;30.40;47.20;;;;;;5037688;28;20599;-74
2023/05/01 11:27:32;;;;;;;1.77;0.90;;;30.30;47.10;;;;;;5043893;28;20581;-74
2023/05/01 11:29:58;;;;;;;1.50;0.70;;;30.30;47.10;;;;;;5042404;28;21013;-75
2023/05/01 11:32:27;;;;;;;1.83;0.90;;;30.30;47.30;;;;;;5034545;28;20596;-74
2023/05/01 11:34:53;;;;;;;3.40;0.80;;;30.30;46.90;;;;;;5031023;28;20582;-75
2023/05/01 11:37:37;;;;;;;1.90;0.90;;;30.30;47.30;;;;;;5032781;28;20928;-75
2023/05/01 11:40:03;;;;;;;1.30;0.63;;;30.30;46.90;;;;;;5033027;28;20732;-76
2023/05/01 11:42:29;;;;;;;1.50;0.70;;;30.20;47.20;;;;;;5031205;28;20577;-75
2023/05/01 11:45:11;;;;;;;2.83;0.87;;;30.10;46.40;;;;;;5031275;28;20611;-76
2023/05/01 11:47:37;;;;;;;2.63;0.77;;;29.90;46.50;;;;;;4993129;28;20703;-75
2023/05/01 11:50:05;;;;;;;3.00;1.13;;;29.80;45.80;;;;;;4992820;28;20578;-75
2023/05/01 11:52:41;;;;;;;1.90;0.80;;;29.70;45.70;;;;;;4991377;28;20601;-75
2023/05/01 11:55:07;;;;;;;2.20;1.20;;;29.50;45.30;;;;;;5019586;28;20687;-75
2023/05/01 11:57:44;;;;;;;1.80;0.90;;;29.40;45.60;;;;;;5030929;28;20603;-75
2023/05/01 12:00:12;;;;;;;1.80;0.87;;;29.30;45.20;;;;;;5031083;28;20992;-76
2023/05/01 12:02:37;;;;;;;1.80;0.83;;;29.10;45.40;;;;;;5031688;28;20568;-76
2023/05/01 12:05:16;;;;;;;1.70;0.90;;;29.00;45.60;;;;;;5015814;28;20630;-76
2023/05/01 12:07:41;;;;;;;1.93;0.80;;;28.80;45.40;;;;;;5030094;28;20169;-76
2023/05/01 12:10:08;;;;;;;1.90;0.80;;;28.70;45.70;;;;;;5032246;28;21116;-75
2023/05/01 12:12:35;;;;;;;2.10;1.10;;;28.50;45.50;;;;;;5029924;28;20179;-76
2023/05/01 12:15:01;;;;;;;1.90;1.10;;;28.40;45.50;;;;;;5047330;28;20667;-75
2023/05/01 12:17:28;;;;;;;2.67;1.33;;;28.30;45.60;;;;;;5030281;28;20589;-74
2023/05/01 12:19:54;;;;;;;2.33;1.00;;;28.10;45.50;;;;;;5031833;28;20624;-75
2023/05/01 12:22:20;;;;;;;2.40;1.20;;;28.00;45.70;;;;;;5024249;28;20588;-73
2023/05/01 12:24:52;;;;;;;2.67;1.20;;;27.90;46.10;;;;;;5030660;28;20189;-75
2023/05/01 12:27:18;;;;;;;2.63;1.00;;;27.80;46.10;;;;;;5031422;28;20569;-75
2023/05/01 12:29:46;;;;;;;1.63;0.83;;;27.70;45.90;;;;;;5030165;28;20588;-75
2023/05/01 12:32:13;;;;;;;2.80;1.10;;;27.70;46.20;;;;;;5031584;28;20989;-76
2023/05/01 12:34:39;;;;;;;5.73;1.13;;;27.60;46.50;;;;;;5029809;28;20662;-76
2023/05/01 12:37:05;;;;;;;1.50;0.80;;;27.60;46.50;;;;;;5030001;28;21211;-76
2023/05/01 12:39:40;;;;;;;2.60;0.93;;;27.50;46.40;;;;;;5028345;28;20652;-76
2023/05/01 12:42:16;;;;;;;2.00;0.80;;;27.50;46.70;;;;;;5019558;28;21180;-76
2023/05/01 12:44:43;;;;;;;2.77;1.00;;;27.60;46.10;;;;;;5029421;28;20615;-74
2023/05/01 12:47:10;;;;;;;1.60;0.90;;;27.70;46.80;;;;;;5013158;28;20597;-75
2023/05/01 12:49:36;;;;;;;1.63;0.90;;;27.80;47.00;;;;;;5031095;28;20593;-75
2023/05/01 12:52:05;;;;;;;2.00;0.83;;;27.90;46.90;;;;;;5013543;28;21148;-75
2023/05/01 12:54:38;;;;;;;2.33;0.70;;;27.90;46.80;;;;;;5030299;28;20669;-74